Date,TemperatureHighF,TemperatureAvgF,TemperatureLowF,DewpointHighF,DewpointAvgF,DewpointLowF,HumidityHigh,HumidityAvg,HumidityLow,PressureMaxIn,PressureMinIn,WindSpeedMaxMPH,WindSpeedAvgMPH,GustSpeedMaxMPH,PrecipitationSumIn
2013-1-1,37,32,19,29,21,7,77,64,50,30.18,29.92,18,5,22,0.03
2013-1-2,30,22,14,18,12,2,91,67,45,30.34,30.09,16,6,23,0.00
2013-1-3,28,19,5,25,9,-1,100,68,43,30.41,30.16,22,3,22,0.00
2013-1-4,38,31,24,28,23,18,100,73,54,30.16,29.97,17,4,18,0.00
2013-1-5,41,32,23,27,23,20,100,70,47,30.40,30.05,21,3,21,0.02
2013-1-6,44,34,25,34,29,23,100,85,57,30.36,30.01,11,2,11,0.01
2013-1-7,39,32,22,32,25,17,100,77,46,30.55,30.11,19,4,19,0.00
2013-1-8,49,35,20,36,28,20,100,79,44,30.54,30.34,11,2,11,0.00
2013-1-9,43,37,25,42,36,24,100,99,89,30.53,30.15,13,2,13,0.00
2013-1-10,45,40,32,42,26,21,100,59,41,30.66,30.20,25,6,28,0.01
2013-1-11,38,32,24,36,30,24,100,94,69,30.68,30.27,7,0,9,0.28
2013-1-12,45,39,34,45,39,34,100,100,100,30.28,30.20,8,1,9,0.14
2013-1-13,47,43,39,47,43,39,100,100,100,30.24,30.07,12,2,12,0.01
2013-1-14,55,46,35,55,42,26,100,85,53,30.40,29.96,20,4,20,0.02
2013-1-15,38,35,32,35,29,25,100,79,60,30.46,30.34,12,3,12,0.03
2013-1-16,37,32,29,37,31,26,100,98,74,30.34,29.95,10,1,10,0.00
2013-1-17,42,34,27,40,29,14,100,83,58,30.23,29.98,19,4,19,0.35
2013-1-18,27,22,19,23,7,-1,99,53,34,30.64,30.20,20,6,20,0.00
2013-1-19,45,36,22,36,25,11,81,64,50,30.54,29.97,13,5,13,0.11
2013-1-20,51,40,27,33,25,10,86,57,23,30.13,29.66,28,6,29,0.04
2013-1-21,30,24,19,27,17,8,100,78,42,30.27,29.94,15,2,15,0.00
2013-1-22,26,18,11,26,5,-6,100,59,33,30.34,29.92,21,6,23,0.00
2013-1-23,17,10,6,4,-2,-6,87,60,40,30.40,30.29,19,5,20,0.00
2013-1-24,18,10,2,4,-3,-9,90,57,31,30.49,30.32,32,7,32,0.00
2013-1-25,22,16,9,22,4,-5,100,62,30,30.56,30.22,19,4,19,0.00
2013-1-26,22,15,8,15,8,2,100,75,44,30.48,30.22,22,5,22,0.00
2013-1-27,31,20,9,14,4,-4,100,54,23,30.65,30.48,20,4,21,0.00
2013-1-28,36,26,16,36,22,5,100,86,48,30.64,30.08,7,0,7,0.00
2013-1-29,37,32,27,37,32,27,100,100,100,30.28,30.09,10,1,10,0.22
2013-1-30,56,45,33,56,45,33,100,100,100,30.22,29.42,17,4,17,0.04
2013-1-31,59,46,29,59,35,12,100,68,31,29.80,29.02,30,8,34,0.79
2013-2-1,30,25,20,17,10,3,71,51,33,30.29,29.80,20,6,25,0.00
2013-2-2,30,22,14,22,11,4,100,64,35,30.43,30.19,16,4,17,0.00
2013-2-3,30,23,16,25,18,14,100,82,52,30.21,29.88,13,2,13,0.00
2013-2-4,30,23,19,19,12,4,99,66,38,30.10,29.92,20,4,20,0.00
2013-2-5,30,25,22,30,19,8,100,79,49,30.15,30.03,9,2,9,0.00
2013-2-6,37,30,23,30,19,-3,100,69,28,30.48,30.04,19,4,19,0.03
2013-2-7,32,24,18,28,7,1,100,49,31,30.67,30.48,13,3,17,0.00
2013-2-8,30,26,19,30,23,10,100,90,51,30.54,29.76,34,7,34,0.00
2013-2-9,27,22,17,23,12,-4,100,70,28,30.44,29.84,35,9,35,0.00
2013-2-10,42,28,12,28,10,-2,100,50,19,30.60,30.42,9,2,14,0.00
2013-2-11,45,34,21,45,34,15,100,98,75,30.49,29.70,16,1,16,0.37
2013-2-12,45,39,34,41,31,26,100,75,49,30.01,29.73,20,5,22,0.00
2013-2-13,45,36,24,35,24,20,100,66,40,30.03,29.79,15,2,15,0.00
2013-2-14,46,36,28,35,27,21,100,74,41,30.09,29.83,13,3,13,0.01
2013-2-15,35,32,29,35,32,29,100,100,100,30.10,30.06,5,1,6,0.00
2013-2-16,39,33,30,36,26,16,100,76,42,30.07,29.89,18,5,18,0.07
2013-2-17,26,21,15,6,3,-2,63,46,32,30.03,29.70,37,11,37,0.02
2013-2-18,32,22,13,19,4,-2,80,48,26,30.33,30.03,28,8,31,0.01
2013-2-19,46,35,20,42,29,9,100,81,50,30.33,29.68,13,3,13,0.23
2013-2-20,38,30,22,38,18,8,100,62,39,30.03,29.69,25,7,25,0.00
2013-2-21,30,23,21,19,14,11,89,69,50,30.42,30.01,26,6,28,0.00
2013-2-22,40,29,18,35,22,15,100,76,47,30.55,30.37,19,3,21,0.00
2013-2-23,38,35,33,38,34,29,100,96,81,30.39,29.95,12,1,13,0.16
2013-2-24,41,35,32,40,35,29,100,99,81,30.01,29.77,18,6,19,0.08
2013-2-25,45,36,30,40,29,26,100,78,52,30.35,30.01,16,4,17,0.00
2013-2-26,44,35,28,36,30,26,100,84,53,30.40,30.16,13,2,14,0.05
2013-2-27,43,38,33,42,38,33,100,100,100,30.16,29.63,18,6,18,1.76
2013-2-28,46,39,33,45,38,33,100,99,86,29.72,29.58,11,2,12,0.01
2013-3-1,46,39,35,38,33,26,100,83,50,29.82,29.64,19,5,19,0.00
2013-3-2,39,34,30,33,27,25,96,76,59,29.85,29.74,16,6,17,0.00
2013-3-3,35,29,26,27,23,19,91,78,58,29.82,29.72,18,6,22,0.00
2013-3-4,39,31,26,24,22,20,84,70,52,29.94,29.77,30,8,30,0.00
2013-3-5,47,37,29,36,26,21,80,64,46,30.11,29.94,17,6,22,0.00
2013-3-6,41,37,34,39,33,28,100,85,65,30.11,30.01,28,8,34,0.01
2013-3-7,36,33,31,35,32,30,100,97,80,30.15,30.06,30,9,30,0.06
2013-3-8,41,34,31,33,30,25,100,85,56,30.25,30.05,22,6,22,0.50
2013-3-9,56,41,30,34,22,11,100,52,19,30.44,30.19,16,4,16,0.09
2013-3-10,53,35,23,38,30,23,100,86,43,30.53,30.31,9,2,9,0.18
2013-3-11,54,46,36,48,43,36,100,90,64,30.36,30.18,10,4,11,0.00
2013-3-12,53,50,40,53,50,40,100,100,100,30.05,29.71,20,4,20,0.98
2013-3-13,50,40,30,40,29,22,100,68,37,29.96,29.79,20,4,20,0.96
2013-3-14,36,30,27,32,17,9,93,60,42,30.00,29.91,31,8,32,0.02
2013-3-15,44,32,23,32,19,11,90,60,31,30.06,29.77,20,5,23,0.00
2013-3-16,41,34,28,32,21,11,91,60,35,29.99,29.81,17,4,17,0.00
2013-3-17,36,30,23,20,10,2,68,45,24,30.43,29.99,25,6,29,0.00
2013-3-18,38,28,19,28,10,-1,100,52,22,30.59,30.25,14,4,14,0.00
2013-3-19,36,32,28,36,32,28,100,100,100,30.25,29.74,17,5,20,0.33
2013-3-20,42,32,26,33,22,15,100,69,36,29.95,29.83,21,3,21,0.16
2013-3-21,37,31,26,33,20,10,100,67,42,29.96,29.71,16,3,17,0.06
2013-3-22,41,32,23,26,18,11,75,57,41,29.92,29.77,23,6,23,0.06
2013-3-23,44,36,30,27,21,14,80,55,32,29.96,29.79,29,6,31,0.02
2013-3-24,46,38,27,33,23,19,87,56,39,30.01,29.77,17,5,19,0.00
2013-3-25,45,38,31,32,27,24,86,64,47,29.84,29.51,23,6,23,0.00
2013-3-26,49,40,33,32,25,18,81,57,31,29.93,29.63,20,4,23,0.00
2013-3-27,53,42,31,29,24,16,72,49,25,29.98,29.81,22,6,25,0.00
2013-3-28,51,43,38,38,32,28,88,65,44,30.12,29.98,16,5,16,0.00
2013-3-29,54,44,36,34,30,26,87,59,36,30.18,30.02,19,5,20,0.00
2013-3-30,56,46,36,32,25,17,83,49,23,30.21,30.04,20,4,22,0.00
2013-3-31,57,43,27,44,30,20,100,64,29,30.25,29.71,13,3,13,0.21
2013-4-1,63,46,33,52,38,13,100,78,39,29.96,29.53,28,5,28,0.07
2013-4-2,42,34,27,22,12,5,66,43,23,30.11,29.95,22,6,28,0.05
2013-4-3,45,36,28,30,12,7,100,40,23,30.35,30.08,25,7,28,0.00
2013-4-4,53,36,27,34,21,12,100,58,29,30.47,30.14,16,4,16,0.00
2013-4-5,61,46,38,35,25,14,89,49,17,30.16,29.66,26,5,28,0.00
2013-4-6,53,40,31,24,11,-1,61,34,14,30.40,30.03,24,6,28,0.00
2013-4-7,56,44,31,46,34,20,100,70,43,30.40,30.04,17,5,17,0.00
2013-4-8,73,55,39,46,40,33,100,65,25,30.11,29.94,14,2,14,0.00
2013-4-9,75,61,49,57,46,38,100,62,29,30.03,29.81,25,4,27,0.01
2013-4-10,69,59,50,56,50,38,100,75,53,29.99,29.77,21,3,21,0.41
2013-4-11,58,51,42,51,41,24,100,74,37,30.17,29.85,17,6,17,0.01
2013-4-12,43,39,37,40,38,32,100,95,71,30.19,29.86,19,6,19,0.45
2013-4-13,56,45,36,42,36,33,100,75,44,30.00,29.84,18,4,18,0.12
2013-4-14,52,45,38,44,32,24,100,62,37,30.31,30.00,19,4,20,0.00
2013-4-15,64,47,33,37,30,24,92,56,29,30.46,30.26,10,2,10,0.00
2013-4-16,65,51,36,56,46,34,100,87,54,30.48,30.11,13,4,14,0.01
2013-4-17,70,58,51,56,37,27,100,51,24,30.35,30.11,17,5,19,0.01
2013-4-18,62,52,40,52,39,28,100,67,28,30.45,30.16,12,3,12,0.00
2013-4-19,71,60,52,66,60,52,100,98,79,30.16,29.65,17,6,17,0.01
2013-4-20,62,52,41,62,38,22,100,65,26,30.36,29.64,22,6,22,0.39
2013-4-21,55,43,33,36,21,15,80,43,24,30.72,30.36,14,5,24,0.00
2013-4-22,62,46,32,38,30,21,100,58,23,30.78,30.52,17,4,17,0.00
2013-4-23,45,41,37,42,37,29,100,86,64,30.62,30.16,19,7,19,0.00
2013-4-24,74,57,42,51,46,41,100,72,32,30.16,29.76,17,5,19,0.00
2013-4-25,64,53,43,53,33,17,100,53,17,30.34,29.89,24,5,24,0.02
2013-4-26,70,52,35,36,30,23,91,47,21,30.45,30.25,16,3,17,0.00
2013-4-27,72,54,40,43,33,27,68,47,22,30.49,30.20,15,3,15,0.00
2013-4-28,71,55,38,47,38,29,100,58,26,30.39,30.17,10,2,11,0.00
2013-4-29,62,55,48,51,40,23,100,60,27,30.30,30.21,10,2,10,0.00
2013-4-30,66,52,43,48,37,25,100,64,22,30.40,30.26,8,1,8,0.00
2013-5-1,77,56,37,46,37,27,98,55,25,30.52,30.30,11,2,13,0.00
2013-5-2,83,61,41,47,41,35,100,58,21,30.52,30.19,12,2,12,0.00
2013-5-3,72,57,47,49,39,31,100,54,30,30.53,30.28,16,4,16,0.00
2013-5-4,72,51,41,52,44,37,100,80,29,30.43,30.18,18,2,18,0.00
2013-5-5,74,51,35,44,40,35,100,71,25,30.41,30.11,12,2,12,0.00
2013-5-6,78,57,43,53,47,43,100,74,35,30.34,30.05,9,2,10,0.00
2013-5-7,80,62,44,61,53,44,100,77,37,30.23,29.99,9,1,10,0.00
2013-5-8,72,61,56,66,60,56,100,97,70,30.16,29.99,12,1,13,0.35
2013-5-9,65,58,53,65,58,53,100,100,91,30.06,29.86,10,1,11,0.15
2013-5-10,80,61,51,65,56,51,100,86,41,30.00,29.83,9,1,9,0.01
2013-5-11,66,61,58,66,61,58,100,99,90,29.89,29.68,9,2,9,0.38
2013-5-12,73,60,49,60,48,28,100,70,35,29.93,29.55,19,3,20,0.07
2013-5-13,60,49,41,34,30,24,73,50,29,30.15,29.93,19,3,19,0.00
2013-5-14,62,48,39,37,30,23,89,53,26,30.17,29.99,15,3,17,0.00
2013-5-15,66,51,34,56,45,34,100,84,45,30.18,29.67,11,1,11,0.01
2013-5-16,84,65,48,57,45,33,100,58,17,29.81,29.56,20,2,25,0.00
2013-5-17,73,62,51,45,39,34,69,45,27,30.25,29.81,19,3,19,0.00
2013-5-18,73,58,43,53,47,41,100,70,34,30.36,30.19,7,1,8,0.00
2013-5-19,60,55,50,59,55,49,100,98,87,30.36,30.21,7,0,7,0.20
2013-5-20,88,68,55,69,62,55,100,83,43,30.21,29.80,12,1,12,0.02
2013-5-21,90,78,62,72,69,62,100,76,49,29.93,29.67,7,1,7,0.00
2013-5-22,82,65,54,71,63,54,100,92,66,30.00,29.76,16,1,16,0.24
2013-5-23,71,66,63,70,66,63,100,99,93,29.87,29.76,7,1,7,1.93
2013-5-24,66,59,46,66,58,45,100,96,82,29.94,29.64,20,2,20,1.21
2013-5-25,47,45,44,46,44,41,100,96,87,29.95,29.88,19,5,25,0.65
2013-5-26,61,51,44,45,41,37,91,71,44,30.22,29.91,35,5,35,0.03
2013-5-27,78,60,45,48,40,32,91,53,22,30.24,30.01,17,3,19,0.00
2013-5-28,73,58,45,58,50,43,100,79,38,30.28,30.12,7,1,7,0.02
2013-5-29,83,67,57,71,63,56,100,89,65,30.18,29.89,20,1,21,1.67
2013-5-30,94,76,62,74,66,62,100,76,37,30.08,29.87,14,1,21,0.01
2013-5-31,97,78,65,74,67,56,100,71,32,30.09,29.84,8,1,8,0.01
2013-6-1,93,78,69,71,67,63,88,70,48,29.97,29.77,7,1,9,0.00
2013-6-2,89,74,67,72,68,65,98,81,52,29.87,29.65,8,1,9,0.00
2013-6-3,81,68,61,69,64,46,100,87,54,29.89,29.70,15,1,18,0.75
2013-6-4,75,63,52,46,43,38,67,50,33,30.11,29.89,22,4,23,0.75
2013-6-5,80,63,49,53,48,43,91,60,35,30.23,30.03,9,1,10,0.00
2013-6-6,72,61,50,60,54,48,100,81,55,30.22,30.05,10,1,10,0.06
2013-6-7,60,57,54,60,57,54,100,100,98,30.04,29.78,15,3,15,3.59
2013-6-8,79,63,52,65,58,52,100,85,54,29.89,29.67,20,4,20,0.61
2013-6-9,87,74,62,62,57,52,93,58,32,30.18,29.99,13,2,13,0.61
2013-6-10,73,63,57,66,61,56,100,92,69,30.21,29.94,10,1,12,1.03
2013-6-11,75,64,58,71,63,58,100,97,78,29.94,29.53,15,2,15,1.30
2013-6-12,75,64,57,60,54,50,90,72,45,29.87,29.64,31,3,31,0.01
2013-6-13,59,56,52,57,54,51,99,96,86,29.88,29.65,20,2,24,2.19
2013-6-14,80,61,51,61,53,46,99,79,37,29.84,29.64,21,4,21,1.03
2013-6-15,83,72,60,58,50,40,92,51,28,29.99,29.82,17,3,18,0.00
2013-6-16,78,66,53,67,58,51,96,79,50,30.02,29.68,12,1,13,0.00
2013-6-17,89,72,61,66,62,55,100,75,40,29.93,29.69,28,1,28,0.00
2013-6-18,84,66,59,69,62,58,100,87,54,29.94,29.72,27,2,32,0.63
2013-6-19,79,65,54,59,51,43,100,66,31,30.20,29.94,15,3,15,0.01
2013-6-20,84,65,49,60,53,47,97,70,35,30.32,30.11,10,1,13,0.00
2013-6-21,87,71,60,67,60,55,88,70,44,30.28,30.09,8,1,9,0.00
2013-6-22,88,72,62,63,59,55,83,66,37,30.25,30.03,9,1,10,0.00
2013-6-23,92,76,64,71,66,56,94,72,44,30.17,29.91,8,2,9,0.00
2013-6-24,92,76,68,72,69,63,97,80,46,30.03,29.78,15,2,17,0.02
2013-6-25,93,76,66,75,69,64,100,81,44,29.97,29.65,11,1,11,0.21
2013-6-26,83,75,70,74,71,68,100,88,68,29.81,29.71,10,1,12,0.21
2013-6-27,85,71,67,74,69,66,100,95,67,29.81,29.62,8,1,10,0.60
2013-6-28,86,73,68,77,71,66,100,95,67,29.62,29.38,13,2,13,1.24
2013-6-29,87,74,68,74,70,68,100,88,61,29.69,29.47,7,1,7,0.00
2013-6-30,86,75,70,76,72,69,99,90,68,29.91,29.69,7,1,8,0.04
2013-7-1,75,72,71,75,72,70,100,98,94,30.02,29.90,6,0,6,0.19
2013-7-2,87,77,71,77,74,71,100,91,67,30.14,29.99,6,2,6,0.08
2013-7-3,88,76,71,78,73,70,97,90,65,30.19,30.05,9,2,9,0.00
2013-7-4,94,80,72,78,74,71,100,83,50,30.18,29.99,10,2,10,0.00
2013-7-5,95,82,73,76,73,70,97,78,46,30.15,29.93,9,2,13,0.00
2013-7-6,94,83,75,76,73,68,95,75,47,30.06,29.87,12,1,16,0.00
2013-7-7,95,82,72,79,75,71,99,82,49,30.00,29.79,13,1,13,0.00
2013-7-8,93,80,72,76,70,66,93,74,43,29.99,29.82,12,2,12,0.00
2013-7-9,88,73,67,74,71,67,100,94,56,30.05,29.91,8,1,8,0.00
2013-7-10,84,77,73,82,75,72,100,93,79,29.99,29.73,8,1,9,0.09
2013-7-11,86,76,71,75,70,65,100,85,54,29.90,29.74,10,1,10,0.22
2013-7-12,80,73,68,68,63,55,91,73,60,30.14,29.90,14,4,16,0.00
2013-7-13,84,70,64,76,68,59,100,93,70,30.27,30.14,9,2,12,0.26
2013-7-14,94,80,72,77,73,69,100,83,48,30.28,30.08,12,1,12,0.25
2013-7-15,92,78,73,76,72,68,99,84,49,30.18,30.00,12,2,14,0.00
2013-7-16,94,82,71,73,69,63,92,66,36,30.14,29.98,15,2,15,0.00
2013-7-17,97,82,70,76,71,64,99,73,39,30.16,29.90,9,1,10,0.00
2013-7-18,99,85,77,77,73,68,92,69,39,29.99,29.79,12,2,12,0.00
2013-7-19,95,83,75,79,75,71,97,79,47,29.90,29.63,13,2,14,0.00
2013-7-20,89,80,74,77,73,63,91,78,57,29.80,29.61,13,2,16,0.00
2013-7-21,92,76,66,70,65,60,100,71,42,29.96,29.79,10,1,10,0.10
2013-7-22,85,74,65,77,70,65,100,89,68,29.98,29.79,10,1,10,0.01
2013-7-23,89,76,71,77,73,70,100,92,55,29.81,29.45,12,1,13,1.05
2013-7-24,80,74,65,73,66,57,100,79,53,29.95,29.57,17,3,17,0.00
2013-7-25,65,61,58,62,56,49,100,85,69,30.12,29.95,17,4,18,0.09
2013-7-26,87,67,60,68,63,60,100,89,52,30.08,29.87,13,3,15,0.43
2013-7-27,87,72,63,70,66,60,100,82,46,30.06,29.89,7,1,7,0.00
2013-7-28,81,72,64,73,68,64,100,89,69,30.00,29.90,9,1,10,0.00
2013-7-29,89,75,68,72,66,55,100,75,38,30.06,29.86,12,1,13,0.00
2013-7-30,82,70,59,62,58,53,94,67,40,30.15,29.99,15,2,15,0.00
2013-7-31,86,70,59,66,61,55,100,75,38,30.17,29.97,12,1,12,0.00
2013-8-1,78,67,62,70,66,62,100,96,67,30.05,29.86,6,0,6,0.56
2013-8-2,86,73,64,70,64,58,100,77,40,29.89,29.74,13,2,15,0.43
2013-8-3,83,70,63,69,65,60,100,84,56,29.89,29.75,10,1,10,0.01
2013-8-4,79,68,57,63,57,52,100,72,44,29.95,29.76,18,3,18,0.00
2013-8-5,79,66,59,56,52,43,90,63,34,30.09,29.92,16,3,17,0.00
2013-8-6,83,66,52,62,56,52,100,75,39,30.17,30.01,9,1,10,0.00
2013-8-7,73,63,56,67,61,56,100,94,73,30.21,30.08,7,0,7,0.00
2013-8-8,78,71,68,74,70,66,100,97,86,30.08,29.96,6,1,6,0.04
2013-8-9,76,73,71,76,73,71,100,100,99,29.99,29.74,9,1,9,1.64
2013-8-10,85,73,63,72,63,52,100,75,43,30.07,29.80,14,3,15,0.00
2013-8-11,86,69,55,63,56,48,94,65,35,30.16,29.92,11,2,12,0.00
2013-8-12,86,72,61,66,62,55,100,75,40,30.05,29.85,9,1,9,0.00
2013-8-13,81,70,65,72,68,63,100,94,64,29.94,29.63,10,0,10,0.06
2013-8-14,75,65,57,66,54,50,100,71,45,30.03,29.72,23,4,23,0.01
2013-8-15,80,67,56,58,54,45,98,67,34,30.17,29.98,15,2,15,0.00
2013-8-16,83,66,53,61,56,51,100,74,35,30.22,30.05,8,0,8,0.00
2013-8-17,83,68,55,64,58,51,100,74,34,30.31,30.15,10,1,10,0.00
2013-8-18,78,68,60,66,62,54,100,84,48,30.30,30.11,7,0,7,0.00
2013-8-19,78,70,62,67,62,59,96,78,56,30.13,29.95,12,2,12,0.00
2013-8-20,86,73,61,67,63,57,100,75,41,30.12,29.97,16,2,16,0.00
2013-8-21,90,74,62,69,64,58,100,76,36,30.19,29.95,13,1,13,0.00
2013-8-22,77,71,65,75,70,65,100,96,81,30.05,29.84,6,0,6,0.08
2013-8-23,80,72,66,71,61,49,100,70,37,30.13,29.83,16,4,19,0.00
2013-8-24,81,67,55,59,52,49,96,63,35,30.39,30.13,14,2,14,0.00
2013-8-25,87,67,52,62,55,40,100,70,27,30.45,30.13,10,1,11,0.00
2013-8-26,75,68,66,70,64,58,100,86,71,30.21,29.90,7,1,11,0.60
2013-8-27,86,74,68,73,70,66,100,89,56,29.91,29.74,14,2,14,0.66
2013-8-28,81,70,65,72,68,65,100,96,65,29.90,29.79,8,0,13,0.00
2013-8-29,77,70,65,70,67,63,100,91,69,30.06,29.90,12,2,13,0.00
2013-8-30,86,72,64,71,67,63,100,87,51,30.04,29.77,10,1,10,0.00
2013-8-31,79,73,70,75,72,70,100,98,87,29.83,29.77,9,1,10,0.01
2013-9-1,77,74,73,76,74,73,100,99,95,29.83,29.78,5,0,5,0.15
2013-9-2,77,73,68,77,73,68,100,100,89,29.82,29.66,16,0,16,1.45
2013-9-3,77,69,62,72,66,60,100,91,65,29.89,29.69,12,2,12,0.00
2013-9-4,81,68,58,63,59,52,100,77,39,29.98,29.84,13,2,15,0.00
2013-9-5,71,63,55,63,55,44,100,78,38,30.19,29.91,13,2,17,0.00
2013-9-6,71,58,46,50,46,40,100,67,38,30.33,30.12,10,2,12,0.00
2013-9-7,79,66,49,61,53,48,100,67,34,30.17,29.87,9,1,9,0.00
2013-9-8,77,66,55,64,55,42,92,69,41,30.14,29.76,25,3,25,0.01
2013-9-9,72,58,44,56,49,42,100,76,41,30.34,30.14,9,1,11,0.00
2013-9-10,79,69,60,74,68,56,100,96,85,30.19,29.98,10,2,11,0.01
2013-9-11,95,79,68,80,74,68,100,87,55,30.07,29.86,7,1,7,0.00
2013-9-12,85,75,69,77,73,69,100,93,68,29.95,29.65,8,1,9,0.51
2013-9-13,74,67,58,68,62,55,100,84,68,29.85,29.59,16,4,17,0.11
2013-9-14,65,57,51,55,52,49,96,83,62,30.15,29.85,20,4,20,0.08
2013-9-15,72,57,44,55,50,44,100,80,43,30.27,30.07,10,1,10,0.00
2013-9-16,70,59,50,60,53,36,100,82,48,30.35,30.03,18,2,18,0.02
2013-9-17,62,51,42,48,40,35,100,69,43,30.50,30.35,15,3,16,0.00
2013-9-18,74,54,40,56,47,40,100,80,36,30.45,30.16,9,1,10,0.00
2013-9-19,80,60,46,57,52,46,100,78,37,30.25,30.01,8,1,9,0.00
2013-9-20,81,61,48,63,55,48,100,84,37,30.17,29.94,9,0,9,0.00
2013-9-21,72,63,53,70,62,53,100,96,84,30.07,29.67,8,1,9,0.05
2013-9-22,69,61,51,69,54,43,100,80,54,29.96,29.62,17,4,20,1.06
2013-9-23,61,52,45,48,44,41,93,75,51,30.12,29.96,20,4,22,0.00
2013-9-24,68,53,42,49,43,39,100,73,37,30.13,29.85,17,2,17,0.00
2013-9-25,71,57,46,57,50,46,100,81,47,30.03,29.85,12,1,12,0.00
2013-9-26,65,58,50,57,52,48,100,84,57,30.19,29.99,10,2,13,0.00
2013-9-27,63,55,48,55,52,48,100,90,69,30.35,30.19,10,2,14,0.00
2013-9-28,71,57,45,60,52,45,100,88,53,30.41,30.23,8,1,12,0.00
2013-9-29,70,56,47,58,51,47,100,87,49,30.32,30.09,9,1,9,0.00
2013-9-30,70,56,44,58,51,44,100,88,52,30.19,29.95,10,1,12,0.00
2013-10-1,77,61,47,64,55,47,100,85,48,30.08,29.83,16,2,16,0.00
2013-10-2,79,65,54,64,59,54,100,85,49,30.04,29.83,13,2,15,0.00
2013-10-3,66,57,51,60,55,49,100,94,56,30.16,30.03,9,1,10,0.00
2013-10-4,66,57,54,62,57,54,100,99,88,30.13,30.03,8,1,10,0.07
2013-10-5,73,64,59,66,62,59,100,94,78,30.13,30.01,8,1,8,0.03
2013-10-6,64,59,56,64,59,56,100,100,99,30.23,30.09,10,2,11,1.40
2013-10-7,73,62,57,72,62,57,100,99,94,30.12,29.76,13,2,14,0.50
2013-10-8,65,56,47,59,48,39,100,79,39,30.44,29.97,15,2,16,0.00
2013-10-9,55,50,45,49,47,45,100,90,76,30.47,30.39,7,1,7,0.00
2013-10-10,58,52,45,54,50,45,100,93,80,30.43,30.20,13,3,13,0.00
2013-10-11,67,57,50,60,52,43,100,83,57,30.20,30.06,13,2,13,0.00
2013-10-12,68,58,47,59,54,45,100,86,67,30.39,30.18,17,3,17,0.00
2013-10-13,62,54,46,54,51,46,100,88,65,30.49,30.39,12,2,15,0.00
2013-10-14,64,50,39,55,48,39,100,91,60,30.50,30.25,7,0,7,0.00
2013-10-15,69,57,48,56,52,44,100,84,54,30.34,30.12,9,0,9,0.00
2013-10-16,62,54,46,56,52,46,100,92,74,30.24,29.97,7,1,8,0.00
2013-10-17,70,62,55,65,61,55,100,96,82,29.97,29.72,7,1,8,0.03
2013-10-18,65,60,47,62,51,42,100,76,45,30.03,29.65,18,3,19,0.02
2013-10-19,64,52,41,53,46,40,100,82,44,30.09,29.79,8,1,8,0.01
2013-10-20,60,53,45,55,42,32,100,73,37,30.14,29.77,20,2,20,0.06
2013-10-21,65,52,38,49,42,38,100,73,39,30.23,30.02,10,2,11,0.00
2013-10-22,66,54,44,57,49,42,100,85,54,30.05,29.74,12,1,13,0.00
2013-10-23,51,44,36,43,37,32,100,79,50,29.93,29.68,10,1,10,0.00
2013-10-24,53,44,34,38,32,25,100,64,37,30.04,29.80,17,3,19,0.00
2013-10-25,46,38,31,37,32,30,100,80,53,30.33,30.15,11,2,16,0.00
2013-10-26,54,43,31,40,32,26,100,70,35,30.34,29.95,12,3,12,0.00
2013-10-27,56,47,36,39,33,27,97,59,34,30.23,29.91,18,3,22,0.00
2013-10-28,59,45,32,36,34,30,100,69,38,30.45,30.17,15,2,17,0.00
2013-10-29,50,41,35,31,26,22,85,58,38,30.57,30.42,13,2,14,0.00
2013-10-30,55,43,33,49,40,30,100,88,60,30.50,30.25,9,0,9,0.00
2013-10-31,62,49,36,61,49,36,100,99,89,30.36,29.84,7,1,8,0.12
2013-11-1,67,62,58,65,60,56,100,94,72,29.84,29.51,12,4,15,0.21
2013-11-2,66,56,42,56,47,41,100,74,42,29.83,29.60,11,2,16,0.01
2013-11-3,49,46,34,47,34,15,100,67,43,30.55,29.84,16,5,16,0.00
2013-11-20,40,27,22,20,16,12,84,65,32,30.82,30.64,12,1,15,0.00
2013-11-21,47,36,19,43,27,17,100,74,40,30.84,30.48,7,1,7,0.00
2013-11-22,51,46,42,51,45,37,100,96,82,30.48,29.93,13,2,14,0.10
2013-11-23,51,40,28,50,26,12,100,61,35,30.11,29.91,25,7,26,0.00
2013-11-24,29,22,18,14,5,-2,74,48,33,30.49,30.06,30,9,32,0.02
2013-11-25,34,25,16,17,11,6,74,55,38,30.62,30.44,17,4,19,0.00
2013-11-26,41,35,30,36,22,13,100,63,43,30.46,30.07,9,2,10,0.30
2013-11-27,61,43,35,61,42,30,100,97,79,30.07,29.33,24,6,28,3.17
2013-11-28,36,29,21,32,17,9,100,63,40,30.63,29.74,23,6,29,0.00
2013-11-29,36,28,21,32,18,14,100,70,46,30.92,30.60,17,3,17,0.00
2013-11-30,35,24,13,32,14,8,100,69,35,30.99,30.58,10,2,10,0.00
2013-12-1,42,35,29,39,32,21,100,90,69,30.51,30.16,7,1,7,0.00
2013-12-2,42,36,28,40,35,28,100,98,89,30.14,30.00,7,1,8,0.00
2013-12-3,46,34,29,42,34,29,100,97,76,30.13,29.94,9,2,9,0.00
2013-12-4,50,36,26,40,32,26,100,87,52,30.29,30.13,6,0,6,0.00
2013-12-5,54,42,37,53,41,33,100,96,81,30.29,29.98,9,1,9,0.03
2013-12-6,54,44,35,54,44,35,100,98,81,30.26,29.91,15,4,17,0.55
2013-12-7,39,33,28,35,27,18,100,80,57,30.65,30.22,21,5,22,0.12
2013-12-8,32,28,22,29,20,18,94,74,62,30.75,30.59,11,3,13,0.00
2013-12-9,35,30,25,34,30,21,100,99,75,30.60,30.05,12,3,12,0.15
2013-12-10,36,31,23,36,31,23,100,100,100,30.22,29.95,10,1,10,0.00
2013-12-11,29,23,19,29,23,19,100,98,85,30.44,30.22,13,1,13,0.00
2013-12-12,24,19,12,22,15,8,100,85,58,30.50,30.30,16,2,16,0.00
2013-12-13,32,24,16,20,15,10,84,69,54,30.54,30.21,20,4,20,0.01
2013-12-14,22,15,12,16,13,10,100,93,66,30.78,30.22,19,6,19,0.00
2013-12-15,35,27,16,35,26,16,100,98,86,30.22,29.65,19,5,20,0.00
2013-12-16,29,23,9,25,16,8,100,74,47,30.46,29.92,18,4,19,0.00
2013-12-17,17,11,2,17,11,2,100,100,100,30.50,30.14,15,3,17,0.00
2013-12-18,34,25,17,31,22,17,100,88,66,30.28,30.11,18,3,18,0.00
2013-12-19,45,35,25,38,25,21,96,69,45,30.31,30.05,15,3,15,0.26
2013-12-20,52,41,29,42,33,29,100,73,49,30.25,30.00,10,3,10,0.37
2013-12-21,57,50,43,51,45,34,100,84,63,30.06,29.91,8,4,10,0.00
2013-12-22,63,58,51,63,57,51,100,98,92,29.97,29.80,15,4,15,0.00
2013-12-23,60,50,37,59,49,31,100,98,80,30.26,29.93,18,3,20,1.02
2013-12-24,37,32,23,31,21,11,82,65,43,30.46,30.19,19,6,20,0.00
2013-12-25,25,18,14,14,8,3,82,65,42,30.71,30.46,24,6,25,0.00
2013-12-26,32,27,21,32,26,17,100,93,83,30.51,30.26,12,3,13,0.00
2013-12-27,36,28,18,26,22,18,100,82,53,30.49,30.28,19,2,19,0.01
2013-12-28,49,35,25,29,26,24,100,72,42,30.28,29.97,13,4,14,0.00
2013-12-29,44,40,38,40,38,32,100,95,69,29.96,29.42,24,5,24,1.14
2013-12-30,40,30,15,40,24,7,100,80,55,30.28,29.60,20,5,20,0.00
2013-12-31,27,19,11,23,15,9,100,83,56,30.28,30.07,13,2,13,0.00
2014-1-1,30,23,17,22,13,7,97,67,40,30.45,30.28,17,3,20,0.00
2014-1-2,22,16,7,22,16,7,100,100,98,30.38,29.89,25,7,25,0.00